createdAt,value
2022-09-20T00:01:35.932Z,100890.53
2022-09-20T00:04:05.415Z,100896.00
2022-09-20T00:06:32.998Z,100892.13
2022-09-20T00:09:01.393Z,100897.88
2022-09-20T00:11:30.026Z,100892.63
2022-09-20T00:13:57.460Z,100887.13
2022-09-20T00:16:27.622Z,100887.13
2022-09-20T00:18:58.089Z,100895.38
2022-09-20T00:21:26.040Z,100899.78
2022-09-20T00:23:53.238Z,100901.97
2022-09-20T00:26:20.354Z,100890.97
2022-09-20T00:28:47.600Z,100889.59
2022-09-20T00:31:14.958Z,100891.47
2022-09-20T00:34:00.793Z,100887.09
2022-09-20T00:36:27.914Z,100895.31
2022-09-20T00:38:58.664Z,100895.56
2022-09-20T00:41:25.950Z,100893.66
2022-09-20T00:43:53.106Z,100895.56
2022-09-20T00:46:20.236Z,100881.00
2022-09-20T00:48:48.598Z,100894.22
2022-09-20T00:51:18.087Z,100890.97
2022-09-20T00:53:46.478Z,100890.72
2022-09-20T00:56:18.003Z,100881.13
2022-09-20T00:58:46.760Z,100886.38
2022-09-20T01:01:13.941Z,100874.56
2022-09-20T01:03:42.534Z,100880.63
2022-09-20T01:06:10.279Z,100868.53
2022-09-20T01:08:37.423Z,100872.09
2022-09-20T01:11:07.689Z,100869.69
2022-09-20T01:13:34.790Z,100876.28
2022-09-20T01:16:01.952Z,100880.09
2022-09-20T01:18:29.157Z,100872.09
2022-09-20T01:20:56.298Z,100881.19
2022-09-20T01:23:26.436Z,100878.47
2022-09-20T01:26:12.105Z,100885.59
2022-09-20T01:28:39.545Z,100886.13
2022-09-20T01:31:08.300Z,100878.38
2022-09-20T01:33:47.134Z,100875.63
2022-09-20T01:36:16.259Z,100880.31
2022-09-20T01:38:52.063Z,100877.56
2022-09-20T01:41:42.461Z,100878.38
2022-09-20T01:44:15.282Z,100876.47
2022-09-20T01:46:42.653Z,100867.16
2022-09-20T01:49:09.753Z,100877.03
2022-09-20T01:51:54.497Z,100874.28
2022-09-20T01:54:37.081Z,100884.97
2022-09-20T01:57:27.141Z,100872.38
2022-09-20T01:59:58.388Z,100890.53
2022-09-20T02:02:34.592Z,100891.63
2022-09-20T02:05:04.818Z,100886.69
2022-09-20T02:07:52.313Z,100886.69
2022-09-20T02:10:35.346Z,100895.75
2022-09-20T02:13:17.843Z,100899.91
2022-09-20T02:16:05.564Z,100904.56
2022-09-20T02:18:32.791Z,100904.31
2022-09-20T02:21:05.338Z,100904.91
2022-09-20T02:23:51.408Z,100908.47
2022-09-20T02:26:18.486Z,100911.22
2022-09-20T02:28:56.283Z,100904.91
2022-09-20T02:31:40.282Z,100908.22
2022-09-20T02:34:25.855Z,100909.28
2022-09-20T02:36:52.959Z,100908.22
2022-09-20T02:39:33.782Z,100908.78
2022-09-20T02:42:33.371Z,100911.53
2022-09-20T02:45:11.068Z,100909.03
2022-09-20T02:47:44.450Z,100903.78
2022-09-20T02:50:12.780Z,100905.47
2022-09-20T02:52:42.619Z,100899.13
2022-09-20T02:55:17.925Z,100904.03
2022-09-20T02:58:00.326Z,100906.53
2022-09-20T03:00:28.942Z,100907.38
2022-09-20T03:03:05.070Z,100907.66
2022-09-20T03:05:36.588Z,100905.97
2022-09-20T03:08:16.098Z,100902.97
2022-09-20T03:10:49.143Z,100899.66
2022-09-20T03:13:25.194Z,100900.72
2022-09-20T03:16:12.580Z,100904.31
2022-09-20T03:19:01.083Z,100908.16
2022-09-20T03:21:37.477Z,100905.94
2022-09-20T03:24:10.706Z,100902.34
2022-09-20T03:26:42.318Z,100905.06
2022-09-20T03:29:19.245Z,100896.53
2022-09-20T03:31:49.146Z,100900.38
2022-09-20T03:34:16.270Z,100894.88
2022-09-20T03:37:01.891Z,100902.88
2022-09-20T03:39:33.856Z,100901.75
2022-09-20T03:42:03.991Z,100904.22
2022-09-20T03:44:31.110Z,100902.78
2022-09-20T03:47:02.751Z,100903.03
2022-09-20T03:49:32.614Z,100900.81
2022-09-20T03:52:05.766Z,100905.22
2022-09-20T03:54:34.906Z,100900.81
2022-09-20T03:57:11.241Z,100903.56
2022-09-20T03:59:44.194Z,100904.63
2022-09-20T04:02:18.159Z,100905.75
2022-09-20T04:04:48.459Z,100900.81
2022-09-20T04:07:16.880Z,100900.00
2022-09-20T04:09:47.709Z,100900.25
2022-09-20T04:12:34.012Z,100896.09
2022-09-20T04:15:07.168Z,100902.91
2022-09-20T04:17:40.054Z,100902.09
2022-09-20T04:20:11.985Z,100896.34
2022-09-20T04:22:39.075Z,100899.91
2022-09-20T04:25:27.746Z,100907.34
2022-09-20T04:28:10.666Z,100913.41
2022-09-20T04:30:43.880Z,100922.22
2022-09-20T04:33:16.126Z,100917.81
2022-09-20T04:36:05.019Z,100919.47
2022-09-20T04:38:32.367Z,100924.97
2022-09-20T04:41:02.194Z,100922.22
2022-09-20T04:43:32.921Z,100929.88
2022-09-20T04:46:00.171Z,100930.72
2022-09-20T04:48:42.515Z,100936.53
2022-09-20T04:51:18.507Z,100943.94
2022-09-20T04:53:45.661Z,100946.41
2022-09-20T04:56:15.607Z,100953.59
2022-09-20T04:59:15.027Z,100946.41
2022-09-20T05:02:03.435Z,100949.16
2022-09-20T05:04:31.518Z,100951.91
2022-09-20T05:07:10.367Z,100965.66
2022-09-20T05:09:47.289Z,100959.56
2022-09-20T05:12:17.126Z,100975.56
2022-09-20T05:14:52.067Z,100976.06
2022-09-20T05:17:21.973Z,100979.09
2022-09-20T05:20:07.585Z,100984.81
2022-09-20T05:23:03.931Z,100985.91
2022-09-20T05:25:54.823Z,100994.13
2022-09-20T05:28:35.845Z,100996.06
2022-09-20T05:31:26.250Z,100995.25
2022-09-20T05:33:53.550Z,100990.81
2022-09-20T05:36:27.745Z,100989.16
2022-09-20T05:39:19.061Z,100991.66
2022-09-20T05:41:48.056Z,100992.75
2022-09-20T05:44:15.266Z,101002.66
2022-09-20T05:47:00.326Z,101003.72
2022-09-20T05:49:27.437Z,101008.97
2022-09-20T05:52:23.900Z,101009.78
2022-09-20T05:55:03.412Z,101018.03
2022-09-20T05:57:39.503Z,101018.03
2022-09-20T06:00:10.436Z,101018.03
2022-09-20T06:02:43.158Z,101029.84
2022-09-20T06:05:17.167Z,101029.03
2022-09-20T06:07:47.701Z,101033.69
2022-09-20T06:10:26.129Z,101026.53
2022-09-20T06:12:59.693Z,101030.72
2022-09-20T06:15:44.885Z,101042.28
2022-09-20T06:18:15.119Z,101035.44
2022-09-20T06:20:48.541Z,101049.41
2022-09-20T06:23:15.694Z,101049.16
2022-09-20T06:25:44.950Z,101046.41
2022-09-20T06:28:21.438Z,101046.66
2022-09-20T06:30:52.336Z,101048.34
2022-09-20T06:33:24.058Z,101043.66
2022-09-20T06:36:25.018Z,101039.00
2022-09-20T06:39:35.718Z,101040.69
2022-09-20T06:42:10.191Z,101047.00
2022-09-20T06:44:41.292Z,101048.91
2022-09-20T06:47:11.727Z,101045.66
2022-09-20T06:49:42.421Z,101040.97
2022-09-20T06:52:13.942Z,101038.00
2022-09-20T06:54:45.813Z,101039.66
2022-09-20T06:57:14.481Z,101032.25
2022-09-20T06:59:41.776Z,101049.56
2022-09-20T07:02:09.000Z,101044.91
2022-09-20T07:04:36.184Z,101043.00
2022-09-20T07:07:08.621Z,101041.06
2022-09-20T07:09:36.520Z,101041.88
2022-09-20T07:12:03.701Z,101043.81
2022-09-20T07:14:31.110Z,101043.31
2022-09-20T07:16:58.222Z,101055.72
2022-09-20T07:19:25.387Z,101047.72
2022-09-20T07:21:52.509Z,101057.63
2022-09-20T07:24:20.150Z,101045.78
2022-09-20T07:26:56.870Z,101052.13
2022-09-20T07:29:24.091Z,101053.53
2022-09-20T07:31:51.268Z,101061.53
2022-09-20T07:34:20.314Z,101053.00
2022-09-20T07:36:47.887Z,101057.44
2022-09-20T07:39:18.095Z,101067.38
2022-09-20T07:41:50.763Z,101063.28
2022-09-20T07:44:23.185Z,101062.16
2022-09-20T07:46:54.079Z,101058.34
2022-09-20T07:49:21.922Z,101064.66
2022-09-20T07:51:49.413Z,101066.91
2022-09-20T07:54:17.147Z,101067.75
2022-09-20T07:56:47.146Z,101063.31
2022-09-20T07:59:14.319Z,101066.91
2022-09-20T08:01:41.859Z,101071.06
2022-09-20T08:04:09.589Z,101063.66
2022-09-20T08:06:37.905Z,101073.81
2022-09-20T08:09:10.227Z,101068.91
2022-09-20T08:11:39.589Z,101071.66
2022-09-20T08:14:08.818Z,101069.72
2022-09-20T08:16:39.949Z,101067.81
2022-09-20T08:19:07.092Z,101071.41
2022-09-20T08:21:34.573Z,101074.97
2022-09-20T08:24:01.993Z,101073.91
2022-09-20T08:26:29.493Z,101071.16
2022-09-20T08:28:57.712Z,101079.41
2022-09-20T08:31:25.668Z,101073.91
2022-09-20T08:33:53.014Z,101067.31
2022-09-20T08:36:22.693Z,101071.16
2022-09-20T08:41:39.205Z,101077.22
2022-09-20T08:44:07.857Z,101071.72
2022-09-20T08:46:39.260Z,101067.88
2022-09-20T08:49:10.994Z,101068.13
2022-09-20T08:51:39.317Z,101068.13
2022-09-20T08:54:07.211Z,101065.38
2022-09-20T08:56:36.456Z,101070.88
2022-09-20T08:59:03.936Z,101066.22
2022-09-20T09:01:33.071Z,101062.63
2022-09-20T09:04:26.183Z,101066.22
2022-09-20T09:06:53.694Z,101065.38
2022-09-20T09:09:23.149Z,101064.56
2022-09-20T09:11:50.626Z,101056.31
2022-09-20T09:14:55.006Z,101059.06
2022-09-20T09:17:27.354Z,101064.56
2022-09-20T09:19:55.924Z,101061.81
2022-09-20T09:22:39.613Z,101064.56
2022-09-20T09:25:18.794Z,101058.22
2022-09-20T09:28:08.934Z,101061.81
2022-09-20T09:30:39.830Z,101048.06
2022-09-20T09:33:25.593Z,101049.72
2022-09-20T09:35:53.428Z,101040.63
2022-09-20T09:38:22.422Z,101038.75
2022-09-20T09:40:50.848Z,101044.22
2022-09-20T09:43:27.234Z,101051.38
2022-09-20T09:45:57.401Z,101045.06
2022-09-20T09:48:28.378Z,101033.25
2022-09-20T09:51:15.737Z,101029.38
2022-09-20T09:53:42.920Z,101035.72
2022-09-20T09:56:18.085Z,101024.72
2022-09-20T09:59:05.481Z,101037.63
2022-09-20T10:01:44.571Z,101027.47
2022-09-20T10:04:20.480Z,101030.22
2022-09-20T10:06:52.394Z,101028.31
2022-09-20T10:09:19.607Z,101032.13
2022-09-20T10:12:02.211Z,101024.47
2022-09-20T10:14:44.581Z,101025.56
2022-09-20T10:17:43.840Z,101015.41
2022-09-20T10:20:31.172Z,101013.47
2022-09-20T10:26:13.377Z,101015.41
2022-09-20T10:28:48.392Z,101009.06
2022-09-20T10:31:28.859Z,101007.97
2022-09-20T10:33:56.250Z,101010.72
2022-09-20T10:36:32.015Z,101007.97
2022-09-20T10:39:05.208Z,101003.56
2022-09-20T10:41:50.782Z,101007.97
2022-09-20T10:44:32.979Z,100996.97
2022-09-20T10:47:17.934Z,100994.22
2022-09-20T10:49:52.482Z,100990.41
2022-09-20T10:52:19.611Z,101000.53
2022-09-20T10:55:04.337Z,100995.03
2022-09-20T10:57:47.146Z,100993.16
2022-09-20T11:00:21.119Z,100990.41
2022-09-20T11:03:14.318Z,100994.78
2022-09-20T11:05:43.680Z,100993.16
2022-09-20T11:08:14.429Z,100991.47
2022-09-20T11:10:46.243Z,100985.16
2022-09-20T11:13:32.224Z,100982.97
2022-09-20T11:16:02.370Z,100982.41
2022-09-20T11:18:33.532Z,100984.34
2022-09-20T11:21:03.130Z,100988.72
2022-09-20T11:23:37.462Z,100990.41
2022-09-20T11:26:10.562Z,100990.41
2022-09-20T11:28:39.484Z,100989.53
2022-09-20T11:31:15.898Z,100986.56
2022-09-20T11:33:52.253Z,100983.22
2022-09-20T11:36:28.430Z,100984.06
2022-09-20T11:39:01.275Z,100978.31
2022-09-20T11:41:30.119Z,100977.47
2022-09-20T11:44:09.658Z,100971.16
2022-09-20T11:46:38.824Z,100972.22
2022-09-20T11:49:09.938Z,100967.56
2022-09-20T11:51:46.320Z,100979.13
2022-09-20T11:54:17.411Z,100962.06
2022-09-20T11:56:51.419Z,100973.91
2022-09-20T11:59:25.276Z,100978.56
2022-09-20T12:01:52.690Z,100971.16
2022-09-20T12:04:32.803Z,100962.63
2022-09-20T12:07:08.349Z,100959.06
2022-09-20T12:09:37.594Z,100955.47
2022-09-20T12:12:37.601Z,100959.06
2022-09-20T12:15:08.536Z,100947.25
2022-09-20T12:17:47.818Z,100942.81
2022-09-20T12:20:42.549Z,100951.91
2022-09-20T12:23:28.214Z,100944.75
2022-09-20T12:26:02.768Z,100944.50
2022-09-20T12:28:34.150Z,100938.16
2022-09-20T12:31:20.295Z,100941.16
2022-09-20T12:34:13.774Z,100935.41
2022-09-20T12:36:44.253Z,100935.41
2022-09-20T12:39:11.877Z,100936.50
2022-09-20T12:41:51.870Z,100931.81
2022-09-20T12:44:37.723Z,100928.00
2022-09-20T12:47:06.382Z,100924.41
2022-09-20T12:50:04.442Z,100925.25
2022-09-20T12:52:52.249Z,100918.94
2022-09-20T12:55:25.931Z,100912.31
2022-09-20T12:57:59.062Z,100908.75
2022-09-20T13:00:34.517Z,100906.81
2022-09-20T13:03:02.451Z,100913.16
2022-09-20T13:05:52.624Z,100912.09
2022-09-20T13:08:27.197Z,100912.31
2022-09-20T13:11:00.405Z,100915.06
2022-09-20T13:13:27.622Z,100907.66
2022-09-20T13:15:54.858Z,100910.41
2022-09-20T13:18:22.209Z,100901.31
2022-09-20T13:20:49.321Z,100893.91
2022-09-20T13:23:18.054Z,100903.00
2022-09-20T13:25:45.142Z,100892.25
2022-09-20T13:28:21.172Z,100892.00
2022-09-20T13:30:48.550Z,100892.00
2022-09-20T13:33:17.338Z,100890.94
2022-09-20T13:35:46.982Z,100879.09
2022-09-20T13:38:14.757Z,100883.50
2022-09-20T13:40:42.551Z,100872.75
2022-09-20T13:43:24.376Z,100872.75
2022-09-20T13:45:58.490Z,100866.41
2022-09-20T13:48:28.996Z,100865.59
2022-09-20T13:50:56.408Z,100861.75
2022-09-20T13:53:40.558Z,100856.25
2022-09-20T13:56:10.146Z,100849.09
2022-09-20T13:58:40.064Z,100851.63
2022-09-20T14:01:09.566Z,100846.34
2022-09-20T14:03:36.790Z,100849.09
2022-09-20T14:06:05.138Z,100849.09
2022-09-20T14:08:42.509Z,100852.66
2022-09-20T14:11:19.622Z,100845.28
2022-09-20T14:13:54.215Z,100841.66
2022-09-20T14:16:21.657Z,100841.94
2022-09-20T14:18:48.817Z,100843.59
2022-09-20T14:21:23.367Z,100841.94
2022-09-20T14:23:54.190Z,100841.09
2022-09-20T14:26:22.471Z,100837.53
2022-09-20T14:28:49.619Z,100832.84
2022-09-20T14:31:27.316Z,100836.72
2022-09-20T14:33:55.471Z,100835.59
2022-09-20T14:36:23.656Z,100832.84
2022-09-20T14:38:51.843Z,100827.34
2022-09-20T14:41:28.863Z,100834.53
2022-09-20T14:43:56.933Z,100829.84
2022-09-20T14:46:28.627Z,100825.16
2022-09-20T14:48:55.729Z,100830.66
2022-09-20T14:51:23.411Z,100824.34
2022-09-20T14:54:05.636Z,100821.59
2022-09-20T14:56:36.119Z,100817.22
2022-09-20T14:59:05.440Z,100825.47
2022-09-20T15:01:32.908Z,100819.97
2022-09-20T15:04:05.895Z,100825.47
2022-09-20T15:06:34.575Z,100825.47
2022-09-20T15:09:01.859Z,100814.47
2022-09-20T15:11:29.951Z,100816.91
2022-09-20T15:13:59.881Z,100815.03
2022-09-20T15:16:27.164Z,100818.63
2022-09-20T15:18:54.926Z,100817.78
2022-09-20T15:21:22.059Z,100807.63
2022-09-20T15:23:49.206Z,100815.88
2022-09-20T15:26:16.334Z,100809.53
2022-09-20T15:28:43.543Z,100805.94
2022-09-20T15:31:15.094Z,100813.34
2022-09-20T15:33:42.458Z,100811.44
2022-09-20T15:36:09.905Z,100805.09
2022-09-20T15:38:39.901Z,100808.69
2022-09-20T15:41:07.514Z,100805.94
2022-09-20T15:43:34.631Z,100807.03
2022-09-20T15:46:17.359Z,100805.09
2022-09-20T15:48:44.582Z,100803.47
2022-09-20T15:51:11.795Z,100799.03
2022-09-20T15:53:41.339Z,100801.78
2022-09-20T15:56:27.473Z,100797.13
2022-09-20T15:58:59.012Z,100811.72
2022-09-20T16:01:28.146Z,100805.34
2022-09-20T16:03:55.803Z,100807.03
2022-09-20T16:06:23.282Z,100806.22
2022-09-20T16:08:50.418Z,100808.69
2022-09-20T16:11:22.678Z,100802.34
2022-09-20T16:13:59.760Z,100794.09
2022-09-20T16:16:27.269Z,100797.69
2022-09-20T16:19:13.110Z,100800.72
2022-09-20T16:21:43.637Z,100804.28
2022-09-20T16:24:12.537Z,100805.94
2022-09-20T16:26:39.932Z,100809.53
2022-09-20T16:29:11.559Z,100805.94
2022-09-20T16:31:40.174Z,100803.19
2022-09-20T16:34:14.362Z,100810.38
2022-09-20T16:36:42.342Z,100809.28
2022-09-20T16:39:15.570Z,100805.94
2022-09-20T16:41:43.119Z,100805.94
2022-09-20T16:44:10.277Z,100813.34
2022-09-20T16:46:37.528Z,100806.78
2022-09-20T16:49:05.232Z,100805.94
2022-09-20T16:51:34.327Z,100809.53
2022-09-20T16:54:01.953Z,100812.28
2022-09-20T16:56:29.829Z,100813.13
2022-09-20T16:58:57.092Z,100815.03
2022-09-20T17:01:24.256Z,100817.78
2022-09-20T17:03:51.821Z,100817.53
2022-09-20T17:06:19.271Z,100814.78
2022-09-20T17:08:46.832Z,100820.53
2022-09-20T17:11:15.853Z,100821.59
2022-09-20T17:13:47.242Z,100824.94
2022-09-20T17:16:15.149Z,100830.44
2022-09-20T17:18:43.224Z,100831.25
2022-09-20T17:21:13.222Z,100827.69
2022-09-20T17:23:41.233Z,100833.19
2022-09-20T17:26:09.070Z,100841.66
2022-09-20T17:28:37.225Z,100842.53
2022-09-20T17:31:04.763Z,100846.34
2022-09-20T17:33:35.307Z,100851.28
2022-09-20T17:36:03.710Z,100853.44
2022-09-20T17:38:31.307Z,100866.13
2022-09-20T17:41:02.182Z,100867.44
2022-09-20T17:43:29.968Z,100869.38
2022-09-20T17:46:06.526Z,100870.19
2022-09-20T17:48:36.754Z,100874.06
2022-09-20T17:51:04.087Z,100870.72
2022-09-20T17:53:33.294Z,100886.97
2022-09-20T17:56:00.691Z,100887.22
2022-09-20T17:58:27.865Z,100881.72
2022-09-20T18:01:27.437Z,100889.72
2022-09-20T18:03:56.212Z,100890.22
2022-09-20T18:06:25.012Z,100892.16
2022-09-20T18:08:55.891Z,100888.31
2022-09-20T18:11:25.033Z,100894.06
2022-09-20T18:13:52.143Z,100891.59
2022-09-20T18:16:19.406Z,100898.41
2022-09-20T18:18:46.775Z,100900.34
2022-09-20T18:21:14.635Z,100905.00
2022-09-20T18:23:42.245Z,100915.75
2022-09-20T18:26:24.878Z,100916.81
2022-09-20T18:28:52.824Z,100917.94
2022-09-20T18:31:20.016Z,100913.75
2022-09-20T18:33:47.224Z,100915.69
2022-09-20T18:36:18.394Z,100915.34
2022-09-20T18:38:49.556Z,100922.53
2022-09-20T18:41:16.680Z,100923.59
2022-09-20T18:43:44.099Z,100934.03
2022-09-20T18:46:11.831Z,100932.38
2022-09-20T18:48:39.854Z,100940.34
2022-09-20T18:51:07.422Z,100937.88
2022-09-20T18:53:35.669Z,100943.09
2022-09-20T18:56:12.972Z,100947.75
2022-09-20T18:58:40.449Z,100946.94
2022-09-20T19:01:27.892Z,100951.63
2022-09-20T19:03:55.038Z,100956.25
2022-09-20T19:06:22.656Z,100948.88
2022-09-20T19:08:55.494Z,100955.44
2022-09-20T19:11:42.862Z,100952.69
2022-09-20T19:14:16.224Z,100967.25
2022-09-20T19:16:43.718Z,100967.25
2022-09-20T19:19:29.674Z,100976.34
2022-09-20T19:22:15.263Z,100971.91
2022-09-20T19:24:42.373Z,100984.00
2022-09-20T19:27:12.755Z,100976.34
2022-09-20T19:29:40.064Z,100982.91
2022-09-20T19:32:09.798Z,100985.91
2022-09-20T19:34:36.898Z,100986.19
2022-09-20T19:37:10.074Z,100993.56
2022-09-20T19:39:37.255Z,100999.06
2022-09-20T19:42:20.015Z,100992.75
2022-09-20T19:44:53.854Z,100995.75
2022-09-20T19:47:27.677Z,101004.84
2022-09-20T19:50:10.118Z,101004.84
2022-09-20T19:52:39.418Z,101008.41
2022-09-20T19:55:06.738Z,101013.09
2022-09-20T19:57:39.875Z,101008.66
2022-09-20T20:00:15.314Z,101011.41
2022-09-20T20:02:43.635Z,101018.59
2022-09-20T20:05:14.346Z,101007.84
2022-09-20T20:07:45.632Z,101007.59
2022-09-20T20:10:19.103Z,101008.91
2022-09-20T20:12:50.066Z,101015.25
2022-09-20T20:15:21.308Z,101017.16
2022-09-20T20:18:02.669Z,101023.50
2022-09-20T20:20:30.026Z,101015.50
2022-09-20T20:23:00.923Z,101019.09
2022-09-20T20:25:47.448Z,101028.16
2022-09-20T20:28:14.645Z,101027.31
2022-09-20T20:30:41.866Z,101030.66
2022-09-20T20:33:13.596Z,101039.72
2022-09-20T20:35:41.433Z,101038.31
2022-09-20T20:38:10.532Z,101048.47
2022-09-20T20:40:40.926Z,101050.41
2022-09-20T20:43:09.345Z,101049.84
2022-09-20T20:45:38.375Z,101058.66
2022-09-20T20:48:06.156Z,101055.31
2022-09-20T20:50:33.890Z,101058.31
2022-09-20T20:53:03.586Z,101053.91
2022-09-20T20:55:33.719Z,101057.47
2022-09-20T20:58:01.190Z,101065.13
2022-09-20T21:00:28.430Z,101059.38
2022-09-20T21:02:58.935Z,101062.97
2022-09-20T21:05:28.072Z,101067.88
2022-09-20T21:07:55.262Z,101071.47
2022-09-20T21:10:22.412Z,101068.97
2022-09-20T21:12:53.155Z,101081.88
2022-09-20T21:15:21.415Z,101074.72
2022-09-20T21:17:52.203Z,101079.38
2022-09-20T21:20:19.512Z,101082.13
2022-09-20T21:22:47.769Z,101078.28
2022-09-20T21:25:14.946Z,101079.97
2022-09-20T21:27:42.150Z,101081.88
2022-09-20T21:30:09.470Z,101083.78
2022-09-20T21:32:36.684Z,101093.13
2022-09-20T21:35:03.874Z,101093.38
2022-09-20T21:37:31.005Z,101093.69
2022-09-20T21:40:00.865Z,101091.44
2022-09-20T21:42:28.805Z,101091.72
2022-09-20T21:44:56.871Z,101094.72
2022-09-20T21:47:23.954Z,101095.53
2022-09-20T21:49:51.051Z,101096.63
2022-09-20T21:52:18.167Z,101102.63
2022-09-20T21:54:46.381Z,101101.78
2022-09-20T21:57:13.776Z,101102.84
2022-09-20T21:59:41.601Z,101105.38
2022-09-20T22:02:09.119Z,101113.59
2022-09-20T22:04:36.284Z,101102.84
2022-09-20T22:07:04.141Z,101113.13
2022-09-20T22:09:31.275Z,101113.59
2022-09-20T22:11:58.382Z,101108.09
2022-09-20T22:14:26.747Z,101105.38
2022-09-20T22:16:53.914Z,101108.09
2022-09-20T22:19:21.069Z,101104.28
2022-09-20T22:21:48.630Z,101114.44
2022-09-20T22:24:15.799Z,101105.59
2022-09-20T22:26:43.748Z,101107.28
2022-09-20T22:29:10.903Z,101107.28
2022-09-20T22:31:39.033Z,101107.28
2022-09-20T22:34:25.274Z,101108.09
2022-09-20T22:36:52.521Z,101111.44
2022-09-20T22:39:19.663Z,101117.19
2022-09-20T22:41:48.018Z,101107.03
2022-09-20T22:44:15.372Z,101116.94
2022-09-20T22:46:42.550Z,101112.25
2022-09-20T22:49:09.818Z,101117.50
2022-09-20T22:51:37.425Z,101118.34
2022-09-20T22:54:05.507Z,101109.84
2022-09-20T22:56:34.522Z,101112.59
2022-09-20T22:59:09.095Z,101111.53
2022-09-20T23:01:41.202Z,101119.50
2022-09-20T23:04:09.475Z,101113.19
2022-09-20T23:06:37.663Z,101110.44
2022-09-20T23:09:05.864Z,101112.94
2022-09-20T23:11:33.071Z,101116.75
2022-09-20T23:14:00.821Z,101114.28
2022-09-20T23:16:28.663Z,101110.44
2022-09-20T23:18:56.100Z,101118.69
2022-09-20T23:21:23.234Z,101112.34
2022-09-20T23:23:57.106Z,101114.28
2022-09-20T23:26:25.433Z,101107.94
2022-09-20T23:28:53.506Z,101113.75
2022-09-20T23:31:20.635Z,101115.44
2022-09-20T23:33:51.548Z,101118.19
2022-09-20T23:36:18.724Z,101117.09
2022-09-20T23:38:45.813Z,101119.00
2022-09-20T23:41:13.515Z,101109.41
2022-09-20T23:43:40.663Z,101109.41
2022-09-20T23:46:08.740Z,101114.09
2022-09-20T23:48:38.995Z,101111.34
2022-09-20T23:51:06.220Z,101112.41
2022-09-20T23:53:36.230Z,101117.91
2022-09-20T23:56:03.626Z,101123.91
2022-09-20T23:58:30.738Z,101121.41
